Time;durP1;ratioP1;P1;durP2;ratioP2;P2;SDS_P1;SDS_P2;PMS_P1;PMS_P2;Temp;Humidity;BMP_temperature;BMP_pressure;BME280_temperature;BME280_humidity;BME280_pressure;Samples;Min_cycle;Max_cycle;Signal;HPM_P1;HPM_P2
2022/07/30 00:02:18;;;;;;;2.33;2.23;;;24.60;44.70;;;;;;5071937;28;20309;-74
2022/07/30 00:04:44;;;;;;;2.70;2.60;;;24.60;44.60;;;;;;5064416;28;21018;-65
2022/07/30 00:07:10;;;;;;;2.70;2.60;;;24.60;44.60;;;;;;5060426;28;20765;-59
2022/07/30 00:09:36;;;;;;;3.07;2.97;;;24.70;44.70;;;;;;5063569;28;20425;-67
2022/07/30 00:12:04;;;;;;;2.60;2.50;;;24.70;44.80;;;;;;5063432;28;20453;-64
2022/07/30 00:14:29;;;;;;;2.30;2.20;;;24.60;44.60;;;;;;5057342;28;20176;-59
2022/07/30 00:16:55;;;;;;;3.03;2.87;;;24.60;44.60;;;;;;5065906;28;20443;-65
2022/07/30 00:19:21;;;;;;;2.60;2.50;;;24.70;44.70;;;;;;5072908;28;20605;-68
2022/07/30 00:21:47;;;;;;;2.50;2.40;;;24.60;44.70;;;;;;5063871;28;20302;-62
2022/07/30 00:24:12;;;;;;;2.67;2.57;;;24.60;44.60;;;;;;5060865;28;20509;-73
2022/07/30 00:26:38;;;;;;;3.43;3.23;;;24.70;44.70;;;;;;5082127;28;21313;-76
2022/07/30 00:29:05;;;;;;;2.63;2.53;;;24.60;44.60;;;;;;5060496;28;20185;-62
2022/07/30 00:31:32;;;;;;;2.70;2.60;;;24.60;44.70;;;;;;5059116;28;20219;-78
2022/07/30 00:33:58;;;;;;;2.70;2.60;;;24.60;44.60;;;;;;5069933;28;20473;-70
2022/07/30 00:36:24;;;;;;;2.60;2.50;;;24.60;44.60;;;;;;5060011;28;20508;-71
2022/07/30 00:38:50;;;;;;;3.07;2.90;;;24.70;44.80;;;;;;5064506;28;20275;-62
2022/07/30 00:41:16;;;;;;;2.77;2.67;;;24.70;44.70;;;;;;5064856;28;20200;-78
2022/07/30 00:43:42;;;;;;;2.60;2.50;;;24.70;44.80;;;;;;5060493;28;20761;-63
2022/07/30 00:46:08;;;;;;;2.63;2.53;;;24.60;44.70;;;;;;5061555;28;20197;-76
2022/07/30 00:48:35;;;;;;;2.80;2.70;;;24.60;44.60;;;;;;5071257;28;20467;-64
2022/07/30 00:51:03;;;;;;;2.43;2.33;;;24.70;44.80;;;;;;5063860;28;20576;-69
2022/07/30 00:53:28;;;;;;;2.70;2.60;;;24.60;44.60;;;;;;5063580;28;20456;-72
2022/07/30 00:55:54;;;;;;;2.40;2.30;;;24.60;44.60;;;;;;5057701;28;20441;-71
2022/07/30 00:58:19;;;;;;;3.17;2.97;;;24.60;44.70;;;;;;5059760;28;20185;-65
2022/07/30 01:00:46;;;;;;;2.53;2.43;;;24.70;44.70;;;;;;5061401;28;20193;-77
2022/07/30 01:03:12;;;;;;;2.60;2.50;;;24.60;44.70;;;;;;5058502;28;20196;-62
2022/07/30 01:05:37;;;;;;;2.73;2.63;;;24.60;45.40;;;;;;5067055;28;21762;-58
2022/07/30 01:08:03;;;;;;;3.50;3.00;;;24.60;45.40;;;;;;5060681;28;20189;-80
2022/07/30 01:10:29;;;;;;;2.63;2.53;;;24.60;44.70;;;;;;5062003;28;20172;-60
2022/07/30 01:12:57;;;;;;;2.77;2.63;;;24.60;45.40;;;;;;5064211;28;20208;-75
2022/07/30 01:15:24;;;;;;;2.73;2.63;;;24.60;45.50;;;;;;5059631;28;20182;-69
2022/07/30 01:17:52;;;;;;;3.30;3.20;;;24.60;44.70;;;;;;5066571;28;20455;-67
2022/07/30 01:20:28;;;;;;;2.50;2.40;;;24.60;44.70;;;;;;5078588;28;20485;-63
2022/07/30 01:23:24;;;;;;;2.97;2.87;;;24.60;44.60;;;;;;5062746;28;20440;-67
2022/07/30 01:26:04;;;;;;;2.20;2.10;;;24.70;44.70;;;;;;5061371;28;20510;-74
2022/07/30 01:28:37;;;;;;;3.07;2.97;;;24.60;45.40;;;;;;5064152;28;20461;-77
2022/07/30 01:31:04;;;;;;;3.03;2.93;;;24.60;44.70;;;;;;5062169;28;20551;-66
2022/07/30 01:33:31;;;;;;;2.53;2.43;;;24.60;44.70;;;;;;5069460;28;20849;-67
2022/07/30 01:36:00;;;;;;;2.50;2.40;;;24.60;44.70;;;;;;5075991;28;20452;-68
2022/07/30 01:38:28;;;;;;;2.50;2.40;;;24.60;44.60;;;;;;5065775;28;20483;-59
2022/07/30 01:40:57;;;;;;;2.87;2.77;;;24.60;44.70;;;;;;5069714;28;20806;-71
2022/07/30 01:43:24;;;;;;;2.77;2.67;;;24.60;44.70;;;;;;5067390;28;20428;-78
2022/07/30 01:45:51;;;;;;;2.90;2.80;;;24.60;44.70;;;;;;5068086;28;22619;-60
2022/07/30 01:48:20;;;;;;;3.13;3.03;;;24.60;44.70;;;;;;5066310;28;22090;-68
2022/07/30 01:50:48;;;;;;;2.63;2.53;;;24.60;44.60;;;;;;5075554;28;20425;-62
2022/07/30 01:53:17;;;;;;;2.73;2.63;;;24.60;44.70;;;;;;5065354;28;20618;-64
2022/07/30 01:55:45;;;;;;;2.60;2.50;;;24.60;44.70;;;;;;5062438;28;20445;-75
2022/07/30 01:58:11;;;;;;;2.73;2.63;;;24.60;44.60;;;;;;5065576;28;20417;-61
2022/07/30 02:00:41;;;;;;;3.00;2.80;;;24.60;44.70;;;;;;5068876;28;20528;-59
2022/07/30 02:03:09;;;;;;;2.53;2.43;;;24.60;44.70;;;;;;5065983;28;20425;-60
2022/07/30 02:05:35;;;;;;;2.70;2.60;;;24.60;44.70;;;;;;5072432;28;20437;-58
2022/07/30 02:08:11;;;;;;;2.80;2.70;;;24.60;44.60;;;;;;5068322;28;20644;-71
2022/07/30 02:10:51;;;;;;;2.73;2.63;;;24.60;44.70;;;;;;5071777;28;20544;-67
2022/07/30 02:13:21;;;;;;;2.60;2.50;;;24.60;44.70;;;;;;5063337;28;20590;-77
2022/07/30 02:16:18;;;;;;;2.93;2.83;;;24.60;44.70;;;;;;5064171;28;20434;-60
2022/07/30 02:18:55;;;;;;;2.87;2.77;;;24.60;44.70;;;;;;5067511;28;20492;-61
2022/07/30 02:21:23;;;;;;;3.30;3.10;;;24.60;44.70;;;;;;5070123;28;20523;-65
2022/07/30 02:23:51;;;;;;;2.50;2.40;;;24.60;44.60;;;;;;5065230;28;20427;-68
2022/07/30 02:26:19;;;;;;;3.40;3.20;;;24.60;44.70;;;;;;5065408;28;20430;-64
2022/07/30 02:28:51;;;;;;;2.73;2.63;;;24.60;44.70;;;;;;5065773;28;20429;-68
2022/07/30 02:31:21;;;;;;;2.50;2.40;;;24.60;44.70;;;;;;5063955;28;20525;-60
2022/07/30 02:33:49;;;;;;;3.10;2.90;;;24.60;44.60;;;;;;5062481;28;20598;-59
2022/07/30 02:36:17;;;;;;;2.93;2.83;;;24.60;44.60;;;;;;5065042;28;20426;-68
2022/07/30 02:38:43;;;;;;;3.07;2.97;;;24.60;44.60;;;;;;5070824;28;20931;-62
2022/07/30 02:41:12;;;;;;;2.83;2.73;;;24.60;44.70;;;;;;5063288;28;20432;-80
2022/07/30 02:43:41;;;;;;;2.80;2.70;;;24.60;44.60;;;;;;5063938;28;20199;-63
2022/07/30 02:46:10;;;;;;;2.50;2.40;;;24.60;45.10;;;;;;5066439;28;20430;-69
2022/07/30 02:48:38;;;;;;;3.30;3.10;;;24.60;44.60;;;;;;5063143;28;20519;-67
2022/07/30 02:51:06;;;;;;;2.90;2.80;;;24.60;44.60;;;;;;5070085;28;20429;-65
2022/07/30 02:53:33;;;;;;;2.77;2.67;;;24.60;44.60;;;;;;5064127;28;22408;-73
2022/07/30 02:56:01;;;;;;;3.07;2.97;;;24.60;44.60;;;;;;5064239;28;20437;-61
2022/07/30 02:58:30;;;;;;;2.90;2.80;;;24.60;44.60;;;;;;5065444;28;20494;-68
2022/07/30 03:00:57;;;;;;;2.30;2.20;;;24.60;44.60;;;;;;5061659;28;20444;-59
2022/07/30 03:03:27;;;;;;;3.10;2.90;;;24.60;44.60;;;;;;5066398;28;20483;-61
2022/07/30 03:05:54;;;;;;;2.57;2.47;;;24.60;44.60;;;;;;5068902;28;20438;-58
2022/07/30 03:08:20;;;;;;;3.00;2.90;;;24.60;44.60;;;;;;5069019;28;20455;-69
2022/07/30 03:10:47;;;;;;;3.30;3.20;;;24.60;44.60;;;;;;5066166;28;20448;-64
2022/07/30 03:13:13;;;;;;;3.57;3.33;;;24.60;44.60;;;;;;5061005;28;20464;-62
2022/07/30 03:15:47;;;;;;;2.70;2.60;;;24.60;44.60;;;;;;5065123;28;20472;-71
2022/07/30 03:18:16;;;;;;;2.60;2.50;;;24.60;44.60;;;;;;5065139;28;20467;-66
2022/07/30 03:20:46;;;;;;;2.80;2.70;;;24.60;44.60;;;;;;5065795;28;20504;-77
2022/07/30 03:23:18;;;;;;;2.37;2.27;;;24.60;44.70;;;;;;5076331;28;20801;-58
2022/07/30 03:25:51;;;;;;;3.27;3.07;;;24.60;44.60;;;;;;5060894;28;20451;-67
2022/07/30 03:28:18;;;;;;;2.60;2.50;;;24.60;44.80;;;;;;5059080;28;20479;-77
2022/07/30 03:30:44;;;;;;;2.73;2.63;;;24.60;44.70;;;;;;5062238;28;20692;-71
2022/07/30 03:33:11;;;;;;;2.63;2.53;;;24.60;44.60;;;;;;5060736;28;20471;-62
2022/07/30 03:35:38;;;;;;;2.90;2.63;;;24.60;44.60;;;;;;5061745;28;20267;-67
2022/07/30 03:38:04;;;;;;;3.17;3.07;;;24.60;44.60;;;;;;5073055;28;20496;-69
2022/07/30 03:40:31;;;;;;;2.60;2.50;;;24.60;44.60;;;;;;5062326;28;20426;-72
2022/07/30 03:42:57;;;;;;;2.70;2.60;;;24.60;44.60;;;;;;5062291;28;20472;-77
2022/07/30 03:45:23;;;;;;;2.70;2.60;;;24.60;44.60;;;;;;5061752;28;22925;-58
2022/07/30 03:47:50;;;;;;;2.70;2.60;;;24.60;44.60;;;;;;5063462;28;20481;-69
2022/07/30 03:50:16;;;;;;;2.67;2.50;;;24.60;44.60;;;;;;5060878;28;20433;-71
2022/07/30 03:52:42;;;;;;;2.50;2.40;;;24.60;44.60;;;;;;5064507;28;20460;-59
2022/07/30 03:55:11;;;;;;;2.93;2.83;;;24.60;44.70;;;;;;5064215;28;20189;-64
2022/07/30 03:57:37;;;;;;;2.90;2.80;;;24.60;44.60;;;;;;5061581;28;20438;-64
2022/07/30 04:00:12;;;;;;;2.90;2.80;;;24.60;44.60;;;;;;5060678;28;20433;-69
2022/07/30 04:02:43;;;;;;;3.27;3.17;;;24.60;44.60;;;;;;5062413;28;20522;-77
2022/07/30 04:05:11;;;;;;;3.03;2.93;;;24.60;44.60;;;;;;5065044;28;20426;-68
2022/07/30 04:07:38;;;;;;;2.97;2.77;;;24.60;44.60;;;;;;5060444;28;20464;-60
2022/07/30 04:10:04;;;;;;;3.10;2.90;;;24.60;44.70;;;;;;5074278;28;20433;-66
2022/07/30 04:12:31;;;;;;;2.80;2.70;;;24.60;44.60;;;;;;5059914;28;20489;-58
2022/07/30 04:14:57;;;;;;;3.00;2.90;;;24.60;44.60;;;;;;5059511;28;20426;-59
2022/07/30 04:17:37;;;;;;;3.13;3.03;;;24.60;44.60;;;;;;5062733;28;20985;-60
2022/07/30 04:20:07;;;;;;;2.97;2.87;;;24.60;44.60;;;;;;5063619;28;20256;-75
2022/07/30 04:22:35;;;;;;;3.13;2.93;;;24.60;44.60;;;;;;5059777;28;20433;-79
2022/07/30 04:25:05;;;;;;;3.33;3.13;;;24.60;44.60;;;;;;5072032;28;20939;-75
2022/07/30 04:27:31;;;;;;;3.10;3.00;;;24.60;44.50;;;;;;5064720;28;20441;-62
2022/07/30 04:29:57;;;;;;;2.40;2.30;;;24.60;44.60;;;;;;5062358;28;20489;-58
2022/07/30 04:32:22;;;;;;;2.83;2.73;;;24.60;44.50;;;;;;5064481;28;20465;-66
2022/07/30 04:34:50;;;;;;;2.80;2.70;;;24.60;44.60;;;;;;5061816;28;20271;-61
2022/07/30 04:37:18;;;;;;;2.83;2.70;;;24.60;44.60;;;;;;5068618;28;20179;-64
2022/07/30 04:39:44;;;;;;;2.50;2.40;;;24.60;44.60;;;;;;5070743;28;20424;-74
2022/07/30 04:42:10;;;;;;;3.03;2.83;;;24.60;44.50;;;;;;5065505;28;20441;-58
2022/07/30 04:44:36;;;;;;;2.53;2.43;;;24.60;44.60;;;;;;5060589;28;20609;-63
2022/07/30 04:47:02;;;;;;;3.20;3.00;;;24.60;44.50;;;;;;5058832;28;20438;-60
2022/07/30 04:49:29;;;;;;;2.73;2.63;;;24.60;44.50;;;;;;5060892;28;20503;-58
2022/07/30 04:51:55;;;;;;;2.73;2.63;;;24.60;44.60;;;;;;5062624;28;20216;-78
2022/07/30 04:54:24;;;;;;;2.80;2.70;;;24.60;44.50;;;;;;5065276;28;20513;-65
2022/07/30 04:56:50;;;;;;;2.77;2.67;;;24.60;44.50;;;;;;5067870;28;20429;-62
2022/07/30 04:59:17;;;;;;;2.70;2.60;;;24.60;44.50;;;;;;5066106;28;20476;-75
2022/07/30 05:01:47;;;;;;;2.87;2.70;;;24.60;44.60;;;;;;5067269;28;20441;-66
2022/07/30 05:04:14;;;;;;;2.73;2.57;;;24.60;44.50;;;;;;5067443;28;20784;-68
2022/07/30 05:06:41;;;;;;;2.70;2.60;;;24.60;44.60;;;;;;5062428;28;20448;-78
2022/07/30 05:09:07;;;;;;;2.90;2.77;;;24.60;44.50;;;;;;5068268;28;20441;-65
2022/07/30 05:11:32;;;;;;;2.80;2.60;;;24.60;44.50;;;;;;5072539;28;20446;-76
2022/07/30 05:13:59;;;;;;;2.53;2.43;;;24.60;44.50;;;;;;5069738;28;20306;-71
2022/07/30 05:16:24;;;;;;;2.77;2.67;;;24.60;44.50;;;;;;5068975;28;20185;-59
2022/07/30 05:18:50;;;;;;;2.63;2.53;;;24.60;44.50;;;;;;5071589;28;20936;-60
2022/07/30 05:21:17;;;;;;;3.47;3.27;;;24.60;44.50;;;;;;5067107;28;20222;-81
2022/07/30 05:23:43;;;;;;;2.90;2.70;;;24.60;44.60;;;;;;5063876;28;20276;-68
2022/07/30 05:26:09;;;;;;;2.37;2.27;;;24.60;44.50;;;;;;5071926;28;20425;-66
2022/07/30 05:28:34;;;;;;;2.93;2.83;;;24.60;44.50;;;;;;5069688;28;20177;-61
2022/07/30 05:31:00;;;;;;;2.93;2.83;;;24.60;44.50;;;;;;5063594;28;20736;-79
2022/07/30 05:33:25;;;;;;;2.60;2.50;;;24.60;44.50;;;;;;5063253;28;20216;-62
2022/07/30 05:35:51;;;;;;;2.60;2.50;;;24.60;44.50;;;;;;5072096;28;20197;-58
2022/07/30 05:38:17;;;;;;;3.10;2.90;;;24.60;44.50;;;;;;5063851;28;20169;-60
2022/07/30 05:40:43;;;;;;;2.87;2.77;;;24.60;44.50;;;;;;5068290;28;20194;-64
2022/07/30 05:43:09;;;;;;;2.77;2.67;;;24.60;44.50;;;;;;5072874;28;20184;-69
2022/07/30 05:45:35;;;;;;;3.03;2.93;;;24.60;44.80;;;;;;5062294;28;20433;-76
2022/07/30 05:48:00;;;;;;;3.00;2.90;;;24.60;44.60;;;;;;5064155;28;20208;-68
2022/07/30 05:50:26;;;;;;;2.87;2.67;;;24.60;44.60;;;;;;5063194;28;20205;-69
2022/07/30 05:52:52;;;;;;;2.90;2.77;;;24.60;44.60;;;;;;5065700;28;20251;-61
2022/07/30 05:55:18;;;;;;;2.77;2.67;;;24.60;44.60;;;;;;5063416;28;20192;-77
2022/07/30 05:57:43;;;;;;;2.70;2.60;;;24.60;44.60;;;;;;5072268;28;20435;-78
2022/07/30 06:00:11;;;;;;;2.70;2.60;;;24.60;44.60;;;;;;5062516;28;20185;-68
2022/07/30 06:02:38;;;;;;;2.70;2.60;;;24.60;44.50;;;;;;5067093;28;20207;-60
2022/07/30 06:05:04;;;;;;;3.33;2.93;;;24.60;44.60;;;;;;5066994;28;20430;-58
2022/07/30 06:07:30;;;;;;;2.60;2.50;;;24.60;44.60;;;;;;5063611;28;21954;-65
2022/07/30 06:10:01;;;;;;;2.60;2.50;;;24.60;44.50;;;;;;5065000;28;20437;-58
2022/07/30 06:12:28;;;;;;;2.90;2.80;;;24.60;44.60;;;;;;5069326;28;20208;-59
2022/07/30 06:14:54;;;;;;;3.00;2.80;;;24.60;44.50;;;;;;5068635;28;20442;-58
2022/07/30 06:17:19;;;;;;;3.10;3.00;;;24.60;44.60;;;;;;5064193;28;20764;-79
2022/07/30 06:19:45;;;;;;;2.60;2.50;;;24.60;44.50;;;;;;5062921;28;20551;-77
2022/07/30 06:22:11;;;;;;;2.90;2.70;;;24.60;44.50;;;;;;5066621;28;20192;-58
2022/07/30 06:24:36;;;;;;;2.97;2.77;;;24.60;45.30;;;;;;5064973;28;20272;-75
2022/07/30 06:27:02;;;;;;;3.00;2.80;;;24.60;44.50;;;;;;5064011;28;20993;-63
2022/07/30 06:29:27;;;;;;;2.50;2.40;;;24.60;44.50;;;;;;5073590;28;20187;-79
2022/07/30 06:31:53;;;;;;;2.70;2.60;;;24.60;44.50;;;;;;5068507;28;20262;-62
2022/07/30 06:34:19;;;;;;;2.93;2.80;;;24.60;44.60;;;;;;5065919;28;20201;-68
2022/07/30 06:36:44;;;;;;;3.00;2.80;;;24.60;45.30;;;;;;5070248;28;20181;-72
2022/07/30 06:39:10;;;;;;;2.50;2.40;;;24.60;44.60;;;;;;5069222;28;20241;-62
2022/07/30 06:41:35;;;;;;;3.10;3.00;;;24.60;44.50;;;;;;5064937;28;20189;-69
2022/07/30 06:44:01;;;;;;;3.00;2.80;;;24.60;44.60;;;;;;5070544;28;20221;-73
2022/07/30 06:46:27;;;;;;;3.23;3.10;;;24.60;44.50;;;;;;5065582;28;20182;-74
2022/07/30 06:48:52;;;;;;;2.67;2.47;;;24.60;44.60;;;;;;5064856;28;20183;-59
2022/07/30 06:51:18;;;;;;;2.63;2.53;;;24.60;44.60;;;;;;5069399;28;20264;-67
2022/07/30 06:53:44;;;;;;;2.97;2.77;;;24.60;44.50;;;;;;5063628;28;20309;-60
2022/07/30 06:56:10;;;;;;;2.80;2.70;;;24.60;44.60;;;;;;5065919;28;20239;-64
2022/07/30 06:58:38;;;;;;;2.80;2.70;;;24.60;44.60;;;;;;5069161;28;20437;-58
2022/07/30 07:01:04;;;;;;;2.83;2.63;;;24.60;44.60;;;;;;5068282;28;20426;-59
2022/07/30 07:03:30;;;;;;;2.70;2.60;;;24.60;44.60;;;;;;5062732;28;20892;-62
2022/07/30 07:05:55;;;;;;;2.83;2.60;;;24.60;44.60;;;;;;5065444;28;20922;-69
2022/07/30 07:08:21;;;;;;;3.10;3.00;;;24.60;44.60;;;;;;5066279;28;20445;-76
2022/07/30 07:10:47;;;;;;;2.60;2.50;;;24.60;44.60;;;;;;5065444;28;20188;-59
2022/07/30 07:13:14;;;;;;;3.30;3.10;;;24.60;45.30;;;;;;5062185;28;20211;-79
2022/07/30 07:15:39;;;;;;;2.90;2.70;;;24.60;44.60;;;;;;5066956;28;20208;-71
2022/07/30 07:18:05;;;;;;;2.80;2.70;;;24.60;44.60;;;;;;5064015;28;20437;-83
2022/07/30 07:20:32;;;;;;;2.80;2.70;;;24.60;44.60;;;;;;5061632;28;20250;-80
2022/07/30 07:22:58;;;;;;;3.13;2.93;;;24.60;44.60;;;;;;5060859;28;20238;-73
2022/07/30 07:25:24;;;;;;;2.80;2.70;;;24.60;44.50;;;;;;5062167;28;20482;-63
2022/07/30 07:27:49;;;;;;;2.27;2.17;;;24.60;44.50;;;;;;5067093;28;20434;-64
2022/07/30 07:30:15;;;;;;;2.70;2.60;;;24.60;44.30;;;;;;5071815;28;20640;-60
2022/07/30 07:32:40;;;;;;;3.03;2.93;;;24.60;44.30;;;;;;5062759;28;20230;-59
2022/07/30 07:35:06;;;;;;;3.17;2.97;;;24.60;44.30;;;;;;5062108;28;20200;-71
2022/07/30 07:37:32;;;;;;;2.70;2.60;;;24.60;44.30;;;;;;5059725;28;20201;-73
2022/07/30 07:39:57;;;;;;;2.70;2.60;;;24.60;44.30;;;;;;5061655;28;20853;-60
2022/07/30 07:42:23;;;;;;;3.23;3.03;;;24.60;44.30;;;;;;5060297;28;20636;-81
2022/07/30 07:44:49;;;;;;;3.00;2.90;;;24.60;44.40;;;;;;5059644;28;20212;-62
2022/07/30 07:47:14;;;;;;;3.17;2.97;;;24.60;44.30;;;;;;5071357;28;20192;-80
2022/07/30 07:49:40;;;;;;;3.23;3.10;;;24.60;44.30;;;;;;5063226;28;20193;-78
2022/07/30 07:52:05;;;;;;;2.97;2.87;;;24.60;44.30;;;;;;5064591;28;20224;-79
2022/07/30 07:54:31;;;;;;;2.53;2.43;;;24.60;44.30;;;;;;5067090;28;20334;-67
2022/07/30 07:56:57;;;;;;;3.17;3.00;;;24.60;44.30;;;;;;5063709;28;20180;-59
2022/07/30 07:59:23;;;;;;;3.13;3.03;;;24.60;44.30;;;;;;5059764;28;20945;-79
2022/07/30 08:01:49;;;;;;;2.57;2.47;;;24.60;44.20;;;;;;5067428;28;20172;-69
2022/07/30 08:04:14;;;;;;;2.70;2.60;;;24.60;44.30;;;;;;5063484;28;20174;-62
2022/07/30 08:06:40;;;;;;;3.27;3.07;;;24.60;44.30;;;;;;5060778;28;22235;-63
2022/07/30 08:09:06;;;;;;;2.40;2.30;;;24.60;44.30;;;;;;5068664;28;20184;-65
2022/07/30 08:11:31;;;;;;;2.90;2.80;;;24.60;44.30;;;;;;5062913;28;20419;-62
2022/07/30 08:13:58;;;;;;;3.33;3.13;;;24.60;44.30;;;;;;5059296;28;20196;-59
2022/07/30 08:16:23;;;;;;;2.73;2.53;;;24.60;44.30;;;;;;5061313;28;20267;-64
2022/07/30 08:18:49;;;;;;;3.23;3.07;;;24.60;44.20;;;;;;5063873;28;20890;-71
2022/07/30 08:21:15;;;;;;;3.00;2.80;;;24.60;44.30;;;;;;5062634;28;20229;-66
2022/07/30 08:23:40;;;;;;;2.77;2.60;;;24.60;44.30;;;;;;5058517;28;20206;-71
2022/07/30 08:26:06;;;;;;;3.27;3.17;;;24.60;44.30;;;;;;5061988;28;20212;-59
2022/07/30 08:28:32;;;;;;;2.83;2.63;;;24.60;44.30;;;;;;5065201;28;20205;-61
2022/07/30 08:30:57;;;;;;;2.70;2.60;;;24.60;45.10;;;;;;5059394;28;20180;-80
2022/07/30 08:33:23;;;;;;;2.77;2.67;;;24.60;44.30;;;;;;5071870;28;20283;-85
2022/07/30 08:35:48;;;;;;;2.80;2.70;;;24.60;44.30;;;;;;5067656;28;20280;-61
2022/07/30 08:38:14;;;;;;;3.40;3.20;;;24.50;44.30;;;;;;5065490;28;21972;-66
2022/07/30 08:40:40;;;;;;;3.10;3.00;;;24.60;44.30;;;;;;5066097;28;20185;-61
2022/07/30 08:43:06;;;;;;;3.00;2.80;;;24.60;44.30;;;;;;5060847;28;20736;-64
2022/07/30 08:45:34;;;;;;;3.50;3.30;;;24.60;44.40;;;;;;5064467;28;20234;-63
2022/07/30 08:48:01;;;;;;;3.30;3.20;;;24.60;44.30;;;;;;5065555;28;20428;-70
2022/07/30 08:50:28;;;;;;;3.03;2.93;;;24.60;44.30;;;;;;5068803;28;20439;-74
2022/07/30 08:52:54;;;;;;;2.57;2.47;;;24.60;45.10;;;;;;5069693;28;20553;-59
2022/07/30 08:55:24;;;;;;;3.40;3.20;;;24.60;44.30;;;;;;5063689;28;20430;-75
2022/07/30 08:57:50;;;;;;;3.03;2.93;;;24.60;44.30;;;;;;5063883;28;20441;-63
2022/07/30 09:00:17;;;;;;;3.17;2.97;;;24.60;44.30;;;;;;5063617;28;21154;-72
2022/07/30 09:02:43;;;;;;;2.97;2.80;;;24.60;44.30;;;;;;5074953;28;20464;-68
2022/07/30 09:05:11;;;;;;;3.30;3.10;;;24.60;44.30;;;;;;5065329;28;20421;-58
2022/07/30 09:07:38;;;;;;;3.07;2.97;;;24.60;44.30;;;;;;5065713;28;20447;-70
2022/07/30 09:10:08;;;;;;;3.07;2.87;;;24.60;44.40;;;;;;5062156;28;20958;-70
2022/07/30 09:12:42;;;;;;;2.97;2.80;;;24.50;44.30;;;;;;5066141;28;20941;-66
2022/07/30 09:15:16;;;;;;;3.30;3.20;;;24.60;44.30;;;;;;5068650;28;20461;-68
2022/07/30 09:17:47;;;;;;;3.10;2.90;;;24.60;44.40;;;;;;5069292;28;20492;-72
2022/07/30 09:20:13;;;;;;;3.20;3.03;;;24.60;44.30;;;;;;5063298;28;20571;-77
2022/07/30 09:22:53;;;;;;;2.70;2.60;;;24.60;44.30;;;;;;5060416;28;20815;-63
2022/07/30 09:25:41;;;;;;;2.93;2.77;;;24.50;44.30;;;;;;5067799;28;20603;-72
2022/07/30 09:28:09;;;;;;;3.07;2.90;;;24.60;44.30;;;;;;5063426;28;20441;-68
2022/07/30 09:30:55;;;;;;;3.30;3.17;;;24.60;44.30;;;;;;5060499;28;20436;-59
2022/07/30 09:33:32;;;;;;;3.10;3.00;;;24.60;44.50;;;;;;5070196;28;20564;-74
2022/07/30 09:35:57;;;;;;;2.73;2.63;;;24.50;44.30;;;;;;5065143;28;20429;-59
2022/07/30 09:38:23;;;;;;;3.30;3.20;;;24.50;44.30;;;;;;5064425;28;20851;-60
2022/07/30 09:40:53;;;;;;;3.20;3.10;;;24.50;44.30;;;;;;5064529;28;20192;-62
2022/07/30 09:43:19;;;;;;;3.20;3.00;;;24.60;44.30;;;;;;5064270;28;20635;-66
2022/07/30 09:45:54;;;;;;;2.87;2.77;;;24.60;44.40;;;;;;5068349;28;20433;-62
2022/07/30 09:48:24;;;;;;;2.50;2.40;;;24.60;44.50;;;;;;5072499;28;20467;-62
2022/07/30 09:50:51;;;;;;;2.73;2.63;;;24.50;44.30;;;;;;5064509;28;20760;-73
2022/07/30 09:53:18;;;;;;;2.97;2.80;;;24.60;44.30;;;;;;5061580;28;20556;-64
2022/07/30 09:55:44;;;;;;;3.43;3.23;;;24.60;44.30;;;;;;5064309;28;20449;-65
2022/07/30 09:58:11;;;;;;;2.90;2.80;;;24.60;44.30;;;;;;5069388;28;20494;-69
2022/07/30 10:00:38;;;;;;;3.37;3.17;;;24.60;44.30;;;;;;5066345;28;20208;-70
2022/07/30 10:03:24;;;;;;;3.30;3.10;;;24.60;44.40;;;;;;5068705;28;20448;-59
2022/07/30 10:05:58;;;;;;;3.50;3.30;;;24.60;44.30;;;;;;5068774;28;20442;-72
2022/07/30 10:08:38;;;;;;;3.17;3.00;;;24.60;44.30;;;;;;5068327;28;20524;-61
2022/07/30 10:11:05;;;;;;;3.20;3.00;;;24.60;44.40;;;;;;5067131;28;20455;-67
2022/07/30 10:13:32;;;;;;;3.30;3.17;;;24.60;44.50;;;;;;5069334;28;20515;-63
2022/07/30 10:15:59;;;;;;;3.00;2.90;;;24.60;44.40;;;;;;5067939;28;20422;-81
2022/07/30 10:18:25;;;;;;;3.10;2.90;;;24.60;44.40;;;;;;5066866;28;21328;-64
2022/07/30 10:20:50;;;;;;;2.90;2.80;;;24.50;44.30;;;;;;5072560;28;20529;-65
2022/07/30 10:23:17;;;;;;;2.83;2.73;;;24.60;44.50;;;;;;5065789;28;20446;-80
2022/07/30 10:25:43;;;;;;;3.30;3.10;;;24.60;44.50;;;;;;5065926;28;20589;-59
2022/07/30 10:28:10;;;;;;;3.23;3.10;;;24.60;44.50;;;;;;5066014;28;21006;-60
2022/07/30 10:30:36;;;;;;;3.20;3.00;;;24.60;44.40;;;;;;5061140;28;20503;-80
2022/07/30 10:33:02;;;;;;;2.73;2.63;;;24.60;44.50;;;;;;5064598;28;20458;-64
2022/07/30 10:35:28;;;;;;;3.60;3.40;;;24.50;44.30;;;;;;5072694;28;20435;-79
2022/07/30 10:37:55;;;;;;;3.87;3.67;;;24.60;44.30;;;;;;5063735;28;20177;-66
2022/07/30 10:40:29;;;;;;;3.47;3.27;;;24.60;44.30;;;;;;5063242;28;20595;-66
2022/07/30 10:43:43;;;;;;;3.27;3.07;;;24.60;44.40;;;;;;5063034;28;20544;-59
2022/07/30 10:46:25;;;;;;;3.40;3.20;;;24.60;44.30;;;;;;5069606;28;21046;-83
2022/07/30 10:48:51;;;;;;;3.53;3.33;;;24.60;44.50;;;;;;5059409;28;20426;-87
2022/07/30 10:51:17;;;;;;;3.57;3.43;;;24.60;44.50;;;;;;5072362;28;20442;-76
2022/07/30 10:53:45;;;;;;;3.43;3.23;;;24.60;44.60;;;;;;5064990;28;20209;-65
2022/07/30 10:56:24;;;;;;;3.10;2.97;;;24.60;44.50;;;;;;5061580;28;20196;-59
2022/07/30 10:59:07;;;;;;;3.33;3.13;;;24.60;44.50;;;;;;5063176;28;20428;-75
2022/07/30 11:01:48;;;;;;;3.33;3.13;;;24.60;44.50;;;;;;5067364;28;20445;-64
2022/07/30 11:04:18;;;;;;;2.90;2.80;;;24.60;44.60;;;;;;5067867;28;20477;-87
2022/07/30 11:06:43;;;;;;;3.30;3.10;;;24.60;44.60;;;;;;5065940;28;20538;-68
2022/07/30 11:09:38;;;;;;;2.90;2.80;;;24.60;44.60;;;;;;5062812;28;20493;-82
2022/07/30 11:12:05;;;;;;;3.40;3.20;;;24.60;44.60;;;;;;5063245;28;20182;-62
2022/07/30 11:14:46;;;;;;;7.40;2.90;;;24.60;44.60;;;;;;5064141;28;20429;-59
2022/07/30 11:17:15;;;;;;;4.43;3.40;;;24.60;44.60;;;;;;5064577;28;20532;-71
2022/07/30 11:20:11;;;;;;;3.03;2.87;;;24.60;44.70;;;;;;5065564;28;20433;-71
2022/07/30 11:22:39;;;;;;;8.80;4.23;;;24.50;44.60;;;;;;5071590;28;20512;-58
2022/07/30 11:25:06;;;;;;;4.00;3.60;;;24.50;44.60;;;;;;5062454;28;20438;-70
2022/07/30 11:27:44;;;;;;;4.20;3.80;;;24.60;44.80;;;;;;5062427;28;20432;-71
2022/07/30 11:30:16;;;;;;;3.60;3.40;;;24.50;44.70;;;;;;5064747;28;20846;-74
2022/07/30 11:32:42;;;;;;;3.20;3.00;;;24.60;44.80;;;;;;5061822;28;20544;-58
2022/07/30 11:35:25;;;;;;;3.60;3.40;;;24.60;44.80;;;;;;5065774;28;20506;-58
2022/07/30 11:38:00;;;;;;;4.63;3.70;;;24.60;44.80;;;;;;5071901;28;20445;-75
2022/07/30 11:40:28;;;;;;;3.67;3.37;;;24.50;44.80;;;;;;5067092;28;20430;-72
2022/07/30 11:43:32;;;;;;;3.13;3.03;;;24.60;44.90;;;;;;5063221;28;20483;-78
2022/07/30 11:46:21;;;;;;;3.40;3.30;;;24.60;44.90;;;;;;5028166;28;20449;-60
2022/07/30 11:48:58;;;;;;;6.40;3.70;;;24.50;44.80;;;;;;5022047;28;21818;-65
2022/07/30 11:51:25;;;;;;;3.80;3.60;;;24.50;44.90;;;;;;5054555;28;20509;-67
2022/07/30 11:54:04;;;;;;;4.00;3.80;;;24.50;45.00;;;;;;5072338;28;20553;-83
2022/07/30 11:56:30;;;;;;;3.33;3.13;;;24.50;44.90;;;;;;5063465;28;20580;-59
2022/07/30 11:59:04;;;;;;;3.70;3.47;;;24.50;45.00;;;;;;5062564;28;20445;-58
2022/07/30 12:01:30;;;;;;;3.77;3.57;;;24.50;45.00;;;;;;5059025;28;20463;-72
2022/07/30 12:03:56;;;;;;;3.47;3.27;;;24.50;44.90;;;;;;5065061;28;20448;-78
2022/07/30 12:06:23;;;;;;;3.57;3.37;;;24.50;44.90;;;;;;5063605;28;20768;-63
2022/07/30 12:08:51;;;;;;;2.87;2.77;;;24.50;45.00;;;;;;5069945;28;20421;-68
2022/07/30 12:11:17;;;;;;;3.27;3.07;;;24.50;45.00;;;;;;5064214;28;20923;-64
2022/07/30 12:13:55;;;;;;;3.90;3.70;;;24.50;44.90;;;;;;5062196;28;20461;-71
2022/07/30 12:16:20;;;;;;;3.97;3.67;;;24.50;44.90;;;;;;5069726;28;20190;-62
2022/07/30 12:18:46;;;;;;;3.40;3.20;;;24.50;44.90;;;;;;5067166;28;20437;-79
2022/07/30 12:21:14;;;;;;;3.30;3.10;;;24.50;44.90;;;;;;5065636;28;20240;-86
2022/07/30 12:23:42;;;;;;;3.37;3.17;;;24.50;44.90;;;;;;5067371;28;20536;-71
2022/07/30 12:26:18;;;;;;;3.47;3.27;;;24.50;44.90;;;;;;5069161;28;20442;-68
2022/07/30 12:28:45;;;;;;;3.37;3.27;;;24.50;44.90;;;;;;5069756;28;20476;-66
2022/07/30 12:31:14;;;;;;;3.57;3.37;;;24.50;44.80;;;;;;5069952;28;20991;-81
2022/07/30 12:33:40;;;;;;;3.50;3.30;;;24.50;44.80;;;;;;5060567;28;20501;-58
2022/07/30 12:36:06;;;;;;;3.17;3.07;;;24.50;44.80;;;;;;5066798;28;20630;-63
2022/07/30 12:38:47;;;;;;;2.77;2.67;;;24.50;44.80;;;;;;5069520;28;20193;-63
2022/07/30 12:41:13;;;;;;;3.33;3.20;;;24.50;44.80;;;;;;5063554;28;20438;-70
2022/07/30 12:43:43;;;;;;;3.47;3.23;;;24.50;44.80;;;;;;5062897;28;20447;-61
2022/07/30 12:46:11;;;;;;;3.30;3.20;;;24.50;44.80;;;;;;5064092;28;20459;-58
2022/07/30 12:48:37;;;;;;;3.97;3.67;;;24.50;44.80;;;;;;5065631;28;20900;-59
2022/07/30 12:51:06;;;;;;;3.33;3.13;;;24.50;44.80;;;;;;5059104;28;20521;-68
2022/07/30 12:53:32;;;;;;;3.20;3.10;;;24.50;44.70;;;;;;5063572;28;20213;-58
2022/07/30 12:56:15;;;;;;;3.00;2.80;;;24.50;44.70;;;;;;5067834;28;20430;-62